Bushey, United Kingdom
Current Conditions -  °F | °C
As of 11:50 AM on Tuesday 21 Oct 2014 (Local Time) from EGWU Reporting Station
Broken Clouds Broken Clouds  
Wind Chill: 54°   Ceiling: 3800
Heat Index: 54°   Visibility: 6mi
Dew Point: 37°   Wind: 25mph
Humidity: 54%   Direction: 290°WNW
Pressure: 29.68"   Gusts: 40mph
Location:  51.64°N, 0.36°W
Report Text: EGWU 211050Z 29022G35KT 9999 BKN038 12/03 Q1005 BLU TEMPO 7000 SHRA WHT
Loading
Personal Weather Stations






























Interactive Weather Map
Tropical Storm Tracking
New forecast layout! Learn more

10-Day Weather Forecast

Advertisements
Track Severe Weather on mobile